Terminal Aerodrome Forecast
Issued by NWS Tulsa, OK

Home | Current Version | Previous Version | Text Only | Print | Product List | Glossary On
Versions: 1 2 3 4 5 6 7 8 9 10 11 12 13 14 15 16
000
FTUS44 KTSA 210500
TAFTUL
TAF
KTUL 210520Z 2106/2206 13004KT P6SM FEW250
     FM211000 19005KT 5SM BR SCT250
     FM211200 36005KT P6SM VCTS SCT025CB BKN050
     FM211600 01007KT P6SM SCT250
     FM211800 01011G20KT P6SM SCT250
     FM220100 36005KT P6SM SKC=

USA.gov is the U.S. government's official web portal to all federal, state and local government web resources and services.